Time;durP1;ratioP1;P1;durP2;ratioP2;P2;SDS_P1;SDS_P2;PMS_P1;PMS_P2;Temp;Humidity;BMP_temperature;BMP_pressure;BME280_temperature;BME280_humidity;BME280_pressure;Samples;Min_cycle;Max_cycle;Signal;HPM_P1;HPM_P2
2021/05/07 00:01:03;;;;;;;1.20;1.00;;;7.50;99.90;;;;;;5038149;28;20181;-44
2021/05/07 00:03:29;;;;;;;1.63;1.00;;;7.40;99.90;;;;;;5037796;28;20563;-43
2021/05/07 00:05:55;;;;;;;1.00;0.90;;;7.40;99.90;;;;;;5038375;28;20807;-44
2021/05/07 00:08:29;;;;;;;1.83;1.37;;;7.40;99.90;;;;;;5037920;28;20520;-44
2021/05/07 00:10:56;;;;;;;1.40;1.20;;;7.40;99.90;;;;;;5038675;28;20413;-45
2021/05/07 00:13:22;;;;;;;1.20;1.10;;;7.40;99.90;;;;;;5038883;28;20742;-44
2021/05/07 00:15:48;;;;;;;1.20;1.00;;;7.40;99.90;;;;;;5037974;28;20686;-43
2021/05/07 00:18:13;;;;;;;1.30;1.00;;;7.40;99.90;;;;;;5070134;28;20440;-44
2021/05/07 00:20:39;;;;;;;1.10;0.93;;;7.40;99.90;;;;;;5038186;28;20311;-44
2021/05/07 00:23:05;;;;;;;1.30;1.07;;;7.40;99.90;;;;;;5036941;28;20237;-44
2021/05/07 00:25:30;;;;;;;1.50;1.20;;;7.40;99.90;;;;;;5037995;28;20175;-44
2021/05/07 00:27:58;;;;;;;1.20;1.10;;;7.40;99.90;;;;;;5037457;28;20504;-44
2021/05/07 00:30:24;;;;;;;1.30;1.10;;;7.40;99.90;;;;;;5036442;28;20266;-44
2021/05/07 00:32:49;;;;;;;1.70;1.10;;;7.40;99.90;;;;;;5036790;28;20428;-43
2021/05/07 00:35:15;;;;;;;2.10;1.40;;;7.50;99.90;;;;;;5036903;28;20224;-44
2021/05/07 00:37:40;;;;;;;1.70;1.10;;;7.50;99.90;;;;;;5036451;28;20178;-43
2021/05/07 00:40:07;;;;;;;0.97;0.80;;;7.50;99.90;;;;;;5036246;28;20178;-44
2021/05/07 00:42:32;;;;;;;2.27;1.13;;;7.40;99.90;;;;;;5036211;28;20398;-43
2021/05/07 00:44:59;;;;;;;1.77;1.17;;;7.50;99.90;;;;;;5069976;28;20418;-43
2021/05/07 00:47:25;;;;;;;1.20;0.90;;;7.50;99.90;;;;;;5037820;28;20197;-44
2021/05/07 00:49:50;;;;;;;1.67;1.20;;;7.50;99.90;;;;;;5037714;28;20516;-44
2021/05/07 00:52:16;;;;;;;2.17;1.97;;;7.50;99.90;;;;;;5070005;28;20548;-44
2021/05/07 00:54:42;;;;;;;2.10;1.47;;;7.50;99.90;;;;;;5070085;28;20495;-44
2021/05/07 00:57:08;;;;;;;1.10;0.93;;;7.50;99.90;;;;;;5037712;28;20578;-45
2021/05/07 00:59:34;;;;;;;1.80;1.07;;;7.50;99.90;;;;;;5070110;28;20429;-44
2021/05/07 01:01:59;;;;;;;1.23;1.10;;;7.50;99.90;;;;;;5037229;28;20206;-44
2021/05/07 01:04:26;;;;;;;1.27;0.90;;;7.40;99.90;;;;;;5037473;28;20488;-44
2021/05/07 01:06:52;;;;;;;0.90;0.70;;;7.40;99.90;;;;;;5037425;28;20204;-43
2021/05/07 01:09:17;;;;;;;1.00;0.70;;;7.30;99.90;;;;;;5037487;28;20472;-44
2021/05/07 01:11:43;;;;;;;1.23;0.90;;;7.30;99.90;;;;;;5037510;28;20189;-44
2021/05/07 01:14:09;;;;;;;1.20;1.10;;;7.30;99.90;;;;;;5070315;28;20185;-44
2021/05/07 01:16:35;;;;;;;1.10;0.80;;;7.30;99.90;;;;;;5041903;28;20424;-44
2021/05/07 01:19:02;;;;;;;1.87;0.70;;;7.30;99.90;;;;;;5041680;28;20587;-44
2021/05/07 01:21:27;;;;;;;2.13;1.00;;;7.30;99.90;;;;;;5073444;28;20568;-43
2021/05/07 01:23:53;;;;;;;1.00;0.90;;;7.30;99.90;;;;;;5041450;28;20934;-44
2021/05/07 01:26:19;;;;;;;1.60;0.60;;;7.20;99.90;;;;;;5041125;28;20556;-44
2021/05/07 01:28:45;;;;;;;0.90;0.50;;;7.20;99.90;;;;;;5040054;28;20178;-45
2021/05/07 01:31:11;;;;;;;0.90;0.70;;;7.20;99.90;;;;;;5041708;28;20413;-44
2021/05/07 01:33:37;;;;;;;1.10;0.70;;;7.20;99.90;;;;;;5041156;28;20455;-44
2021/05/07 01:36:04;;;;;;;1.00;0.73;;;7.10;99.90;;;;;;5041448;28;20175;-44
2021/05/07 01:38:30;;;;;;;0.80;0.43;;;7.00;99.90;;;;;;5041370;28;20425;-44
2021/05/07 01:40:55;;;;;;;0.80;0.50;;;7.00;99.90;;;;;;5039857;28;20718;-44
2021/05/07 01:43:21;;;;;;;0.90;0.57;;;7.00;99.90;;;;;;5041100;28;20356;-44
2021/05/07 01:45:48;;;;;;;1.20;0.60;;;7.00;99.90;;;;;;5041446;28;20193;-44
2021/05/07 01:48:14;;;;;;;1.60;0.63;;;7.00;99.90;;;;;;5040874;28;20519;-44
2021/05/07 01:50:42;;;;;;;1.10;0.60;;;6.90;99.90;;;;;;5041379;28;20514;-44
2021/05/07 01:53:08;;;;;;;1.57;0.87;;;6.90;99.90;;;;;;5040891;28;20409;-44
2021/05/07 01:55:41;;;;;;;1.03;0.60;;;6.90;99.90;;;;;;5041014;28;20413;-44
2021/05/07 01:58:08;;;;;;;1.20;0.60;;;6.90;99.90;;;;;;5041212;28;20412;-44
2021/05/07 02:00:34;;;;;;;2.40;0.80;;;6.90;99.90;;;;;;5041024;28;20421;-44
2021/05/07 02:03:01;;;;;;;0.90;0.50;;;6.80;99.90;;;;;;5040709;28;20488;-44
2021/05/07 02:05:28;;;;;;;1.17;0.63;;;6.80;99.90;;;;;;5040840;28;20425;-44
2021/05/07 02:07:55;;;;;;;1.13;0.77;;;6.70;99.90;;;;;;5040382;28;20436;-44
2021/05/07 02:10:24;;;;;;;1.70;0.70;;;6.70;99.90;;;;;;5040771;28;20413;-44
2021/05/07 02:12:51;;;;;;;1.00;0.63;;;6.70;99.90;;;;;;5039716;28;20428;-44
2021/05/07 02:15:18;;;;;;;1.23;0.57;;;6.70;99.90;;;;;;5040633;28;20494;-44
2021/05/07 02:17:44;;;;;;;0.90;0.50;;;6.80;99.90;;;;;;5040705;28;20739;-44
2021/05/07 02:20:15;;;;;;;1.73;0.70;;;6.70;99.90;;;;;;5040228;28;20465;-44
2021/05/07 02:22:41;;;;;;;1.43;0.63;;;6.70;99.90;;;;;;5040690;28;20464;-44
2021/05/07 02:25:08;;;;;;;1.00;0.63;;;6.60;99.90;;;;;;5039765;28;20449;-43
2021/05/07 02:27:34;;;;;;;0.90;0.60;;;6.60;99.90;;;;;;5040263;28;20432;-44
2021/05/07 02:30:00;;;;;;;1.50;1.00;;;6.60;99.90;;;;;;5040775;28;20417;-44
2021/05/07 02:32:26;;;;;;;0.90;0.70;;;6.60;99.90;;;;;;5040019;28;20414;-44
2021/05/07 02:34:52;;;;;;;0.90;0.70;;;6.60;99.90;;;;;;5040755;28;20199;-44
2021/05/07 02:37:17;;;;;;;0.80;0.50;;;6.60;99.90;;;;;;5072945;28;20444;-44
2021/05/07 02:39:43;;;;;;;3.13;1.37;;;6.70;99.90;;;;;;5040139;28;20178;-44
2021/05/07 02:42:09;;;;;;;0.80;0.63;;;6.70;99.90;;;;;;5039927;28;20297;-44
2021/05/07 02:44:35;;;;;;;0.90;0.67;;;6.80;99.90;;;;;;5040119;28;20524;-44
2021/05/07 02:47:04;;;;;;;0.90;0.80;;;6.80;99.90;;;;;;5040266;28;20433;-44
2021/05/07 02:49:34;;;;;;;0.77;0.50;;;6.80;99.90;;;;;;5039849;28;20438;-44
2021/05/07 02:52:01;;;;;;;1.37;0.80;;;6.90;99.90;;;;;;5040032;28;20413;-44
2021/05/07 02:54:27;;;;;;;0.93;0.60;;;6.90;99.90;;;;;;5039661;28;20455;-43
2021/05/07 02:56:52;;;;;;;1.10;0.80;;;6.80;99.90;;;;;;5040118;28;20413;-44
2021/05/07 02:59:18;;;;;;;0.87;0.60;;;6.90;99.90;;;;;;5039817;28;20181;-44
2021/05/07 03:01:44;;;;;;;0.90;0.60;;;6.90;99.90;;;;;;5039621;28;20206;-44
2021/05/07 03:04:09;;;;;;;1.47;0.80;;;6.90;99.90;;;;;;5039202;28;20217;-43
2021/05/07 03:06:35;;;;;;;1.00;0.70;;;6.80;99.90;;;;;;5039835;28;20187;-44
2021/05/07 03:09:02;;;;;;;0.97;0.60;;;6.80;99.90;;;;;;5039566;28;20265;-44
2021/05/07 03:11:28;;;;;;;1.27;0.90;;;6.80;99.90;;;;;;5039329;28;20170;-44
2021/05/07 03:13:53;;;;;;;0.90;0.80;;;6.80;99.90;;;;;;5039498;28;20894;-44
2021/05/07 03:16:22;;;;;;;0.90;0.60;;;6.70;99.90;;;;;;5039316;28;20236;-44
2021/05/07 03:18:49;;;;;;;1.00;0.60;;;6.60;99.90;;;;;;5039447;28;20568;-44
2021/05/07 03:21:14;;;;;;;1.77;0.70;;;6.70;99.90;;;;;;5039583;28;20469;-44
2021/05/07 03:23:40;;;;;;;4.53;0.90;;;6.70;99.90;;;;;;5039283;28;20503;-44
2021/05/07 03:26:06;;;;;;;1.20;0.70;;;6.70;99.90;;;;;;5038922;28;20175;-44
2021/05/07 03:28:31;;;;;;;1.77;0.77;;;6.70;99.90;;;;;;5039150;28;20182;-42
2021/05/07 03:30:57;;;;;;;0.90;0.70;;;6.70;99.90;;;;;;5039349;28;20244;-44
2021/05/07 03:33:22;;;;;;;1.77;0.70;;;6.60;99.90;;;;;;5038972;28;20183;-44
2021/05/07 03:35:48;;;;;;;0.93;0.70;;;6.60;99.90;;;;;;5039190;28;20194;-44
2021/05/07 03:38:13;;;;;;;1.50;0.70;;;6.60;99.90;;;;;;5038536;28;20206;-44
2021/05/07 03:40:39;;;;;;;1.10;0.70;;;6.70;99.90;;;;;;5039138;28;20261;-44
2021/05/07 03:43:05;;;;;;;2.20;1.13;;;6.70;99.90;;;;;;5038356;28;20212;-43
2021/05/07 03:45:30;;;;;;;1.00;0.70;;;6.70;99.90;;;;;;5039134;28;20337;-43
2021/05/07 03:47:56;;;;;;;2.07;1.77;;;6.70;99.90;;;;;;5038998;28;20441;-44
2021/05/07 03:50:22;;;;;;;1.80;1.70;;;6.70;99.90;;;;;;5038675;28;20179;-43
2021/05/07 03:52:47;;;;;;;3.00;2.10;;;6.70;99.90;;;;;;5038545;28;20201;-44
2021/05/07 03:55:14;;;;;;;2.53;2.03;;;6.70;99.90;;;;;;5037872;28;20444;-44
2021/05/07 03:57:40;;;;;;;2.70;2.03;;;6.70;99.90;;;;;;5037573;28;20182;-44
2021/05/07 04:00:07;;;;;;;2.43;2.23;;;6.60;99.90;;;;;;5037708;28;20703;-44
2021/05/07 04:02:33;;;;;;;2.33;1.80;;;6.60;99.90;;;;;;5037458;28;20469;-44
2021/05/07 04:04:58;;;;;;;1.73;1.60;;;6.60;99.90;;;;;;5037041;28;20429;-43
2021/05/07 04:07:26;;;;;;;2.03;1.83;;;6.50;99.90;;;;;;5037176;28;20561;-44
2021/05/07 04:12:31;;;;;;;2.03;1.70;;;6.40;99.90;;;;;;5038415;28;20669;-44
2021/05/07 04:14:56;;;;;;;2.90;1.40;;;6.40;99.90;;;;;;5038057;28;20582;-44
2021/05/07 04:17:22;;;;;;;3.70;1.80;;;6.40;99.90;;;;;;5037996;28;20512;-44
2021/05/07 04:19:47;;;;;;;1.50;1.20;;;6.40;99.90;;;;;;5037552;28;20512;-43
2021/05/07 04:22:13;;;;;;;1.70;1.50;;;6.40;99.90;;;;;;5037727;28;20222;-43
2021/05/07 04:24:39;;;;;;;2.30;1.03;;;6.40;99.90;;;;;;5038191;28;20261;-44
2021/05/07 04:27:05;;;;;;;1.67;0.60;;;6.30;99.90;;;;;;5038105;28;20274;-44
2021/05/07 04:29:30;;;;;;;1.70;1.00;;;6.00;99.90;;;;;;5037811;28;20189;-44
2021/05/07 04:31:57;;;;;;;1.00;0.70;;;6.00;99.90;;;;;;5037617;28;20428;-42
2021/05/07 04:34:23;;;;;;;1.40;0.90;;;5.90;99.90;;;;;;5037852;28;20205;-44
2021/05/07 04:36:49;;;;;;;1.57;0.77;;;6.00;99.90;;;;;;5038007;28;20512;-44
2021/05/07 04:39:14;;;;;;;1.40;0.90;;;6.00;99.90;;;;;;5038065;28;20178;-44
2021/05/07 04:41:40;;;;;;;1.70;0.80;;;6.00;99.90;;;;;;5037658;28;20174;-43
2021/05/07 04:44:06;;;;;;;2.20;0.90;;;5.90;99.90;;;;;;5037193;28;20174;-44
2021/05/07 04:46:32;;;;;;;1.00;0.80;;;5.80;99.90;;;;;;5037932;28;20175;-43
2021/05/07 04:48:57;;;;;;;2.10;0.47;;;5.60;99.90;;;;;;5037248;28;20460;-44
2021/05/07 04:51:23;;;;;;;2.00;0.90;;;5.60;99.90;;;;;;5037593;28;20178;-43
2021/05/07 04:53:49;;;;;;;2.80;0.87;;;5.60;99.90;;;;;;5037105;28;20583;-44
2021/05/07 04:56:15;;;;;;;1.10;0.67;;;5.60;99.90;;;;;;5037394;28;20240;-44
2021/05/07 04:58:40;;;;;;;1.80;0.70;;;5.50;99.90;;;;;;5036857;28;20174;-43
2021/05/07 05:01:06;;;;;;;1.83;0.77;;;5.60;99.90;;;;;;5037129;28;20332;-44
2021/05/07 05:03:32;;;;;;;2.20;0.63;;;5.60;99.90;;;;;;5036685;28;20206;-43
2021/05/07 05:05:57;;;;;;;1.27;0.87;;;5.60;99.90;;;;;;5036904;28;20189;-43
2021/05/07 05:08:23;;;;;;;1.70;1.00;;;5.70;99.90;;;;;;5035865;28;20476;-44
2021/05/07 05:10:54;;;;;;;1.83;0.80;;;5.70;99.90;;;;;;5037688;28;20553;-43
2021/05/07 05:13:19;;;;;;;1.00;0.50;;;5.70;99.90;;;;;;5037306;28;20428;-44
2021/05/07 05:15:45;;;;;;;1.07;0.70;;;5.70;99.90;;;;;;5037238;28;20428;-43
2021/05/07 05:18:11;;;;;;;1.97;0.60;;;5.70;99.90;;;;;;5068380;28;20568;-43
2021/05/07 05:20:36;;;;;;;1.10;0.60;;;5.80;99.90;;;;;;5036530;28;20268;-42
2021/05/07 05:23:02;;;;;;;1.10;0.73;;;5.80;99.90;;;;;;5036050;28;20269;-44
2021/05/07 05:25:27;;;;;;;1.67;0.60;;;5.80;99.90;;;;;;5036761;28;20516;-44
2021/05/07 05:27:53;;;;;;;1.27;0.77;;;5.80;99.90;;;;;;5036147;28;20202;-44
2021/05/07 05:30:21;;;;;;;1.00;0.70;;;5.70;99.90;;;;;;5035648;28;20178;-44
2021/05/07 05:32:47;;;;;;;1.23;0.60;;;5.70;99.90;;;;;;5035318;28;20564;-44
2021/05/07 05:35:12;;;;;;;1.87;0.80;;;5.80;99.90;;;;;;5036089;28;20436;-44
2021/05/07 05:37:38;;;;;;;2.27;1.00;;;5.80;99.90;;;;;;5035692;28;20185;-44
2021/05/07 05:40:06;;;;;;;1.50;0.83;;;5.90;99.90;;;;;;5035432;28;20549;-43
2021/05/07 05:42:31;;;;;;;1.07;0.70;;;5.90;99.90;;;;;;5035771;28;20670;-44
2021/05/07 05:44:57;;;;;;;1.10;0.80;;;6.00;99.90;;;;;;5035663;28;20424;-44
2021/05/07 05:47:22;;;;;;;1.03;0.77;;;6.00;99.90;;;;;;5036273;28;20179;-44
2021/05/07 05:49:48;;;;;;;1.50;0.90;;;6.10;99.90;;;;;;5035401;28;20174;-44
2021/05/07 05:52:14;;;;;;;6.43;2.20;;;5.90;99.90;;;;;;5036626;28;20549;-43
2021/05/07 05:54:39;;;;;;;1.80;1.33;;;6.00;99.90;;;;;;5036347;28;20182;-44
2021/05/07 05:57:05;;;;;;;1.30;0.90;;;5.90;99.90;;;;;;5035957;28;20186;-44
2021/05/07 05:59:31;;;;;;;2.33;1.60;;;6.10;99.90;;;;;;5036178;28;20433;-44
2021/05/07 06:01:56;;;;;;;2.87;1.77;;;6.20;99.90;;;;;;5036939;28;20217;-44
2021/05/07 06:04:22;;;;;;;2.23;1.60;;;6.20;99.90;;;;;;5039831;28;20171;-43
2021/05/07 06:06:48;;;;;;;2.87;1.60;;;6.20;99.90;;;;;;5038250;28;20439;-44
2021/05/07 06:09:13;;;;;;;1.57;1.20;;;6.20;99.90;;;;;;5039582;28;20209;-42
2021/05/07 06:11:39;;;;;;;1.50;1.30;;;6.30;99.90;;;;;;5039026;28;20506;-43
2021/05/07 06:14:05;;;;;;;2.83;2.30;;;6.20;99.90;;;;;;5039026;28;20224;-44
2021/05/07 06:16:33;;;;;;;3.07;2.23;;;6.10;99.90;;;;;;5040338;28;20186;-43
2021/05/07 06:18:59;;;;;;;2.10;1.80;;;6.20;99.90;;;;;;5039235;28;20872;-42
2021/05/07 06:21:25;;;;;;;2.57;2.30;;;6.20;99.90;;;;;;5038859;28;20503;-43
2021/05/07 06:23:50;;;;;;;3.27;2.47;;;6.40;99.90;;;;;;5038990;28;20214;-43
2021/05/07 06:26:16;;;;;;;3.30;2.77;;;6.50;99.90;;;;;;5038247;28;20608;-42
2021/05/07 06:28:41;;;;;;;3.47;3.17;;;6.60;99.90;;;;;;5038047;28;20191;-44
2021/05/07 06:31:07;;;;;;;5.33;4.07;;;6.50;99.90;;;;;;5037850;28;20178;-43
2021/05/07 06:33:33;;;;;;;3.70;3.40;;;6.20;99.90;;;;;;5038465;28;20392;-43
2021/05/07 06:35:58;;;;;;;5.43;3.63;;;6.40;99.90;;;;;;5040162;28;20206;-42
2021/05/07 06:38:24;;;;;;;5.93;4.10;;;6.40;99.90;;;;;;5040092;28;20297;-43
2021/05/07 06:40:50;;;;;;;5.00;4.50;;;6.50;99.90;;;;;;5040076;28;20185;-43
2021/05/07 06:43:16;;;;;;;5.80;5.20;;;6.70;99.90;;;;;;5038551;28;20601;-43
2021/05/07 06:45:41;;;;;;;5.50;3.93;;;6.90;99.90;;;;;;5038593;28;20822;-44
2021/05/07 06:48:07;;;;;;;7.13;4.70;;;6.90;99.90;;;;;;5038333;28;20593;-43
2021/05/07 06:50:33;;;;;;;5.53;4.50;;;7.10;99.90;;;;;;5039695;28;20280;-44
2021/05/07 06:52:59;;;;;;;6.47;5.77;;;7.00;99.90;;;;;;5038625;28;20175;-43
2021/05/07 06:55:24;;;;;;;6.40;5.70;;;7.00;99.60;;;;;;5038782;28;20316;-44
2021/05/07 06:57:50;;;;;;;8.07;6.57;;;6.70;99.90;;;;;;5039016;28;20465;-44
2021/05/07 07:00:17;;;;;;;8.07;6.77;;;6.80;99.90;;;;;;5039636;28;20473;-42
2021/05/07 07:02:42;;;;;;;7.97;6.40;;;6.70;99.90;;;;;;5039449;28;20460;-44
2021/05/07 07:05:08;;;;;;;10.83;7.63;;;6.70;99.90;;;;;;5071172;28;20889;-44
2021/05/07 07:07:36;;;;;;;6.80;6.20;;;6.60;99.80;;;;;;5038765;28;20175;-43
2021/05/07 07:10:03;;;;;;;7.27;6.10;;;6.30;99.70;;;;;;5036770;28;20437;-44
2021/05/07 07:12:29;;;;;;;5.30;4.80;;;6.30;99.90;;;;;;5037316;28;20425;-43
2021/05/07 07:14:54;;;;;;;5.67;5.10;;;6.40;99.90;;;;;;5037719;28;20885;-44
2021/05/07 07:17:20;;;;;;;7.17;5.53;;;6.40;99.90;;;;;;5038157;28;20190;-43
2021/05/07 07:19:46;;;;;;;7.43;6.03;;;6.40;99.90;;;;;;5037712;28;20269;-43
2021/05/07 07:22:12;;;;;;;5.80;5.20;;;6.20;99.70;;;;;;5039180;28;20217;-44
2021/05/07 07:24:38;;;;;;;5.70;5.10;;;6.20;99.90;;;;;;5070942;28;20332;-43
2021/05/07 07:27:05;;;;;;;6.00;5.30;;;6.20;99.90;;;;;;5038731;28;20421;-43
2021/05/07 07:29:30;;;;;;;4.90;4.50;;;6.20;99.90;;;;;;5070194;28;20175;-44
2021/05/07 07:31:56;;;;;;;5.30;4.70;;;6.30;99.90;;;;;;5035487;28;20429;-44
2021/05/07 07:34:22;;;;;;;9.50;5.33;;;6.30;99.90;;;;;;5037329;28;20711;-44
2021/05/07 07:36:48;;;;;;;6.83;5.90;;;6.20;99.90;;;;;;5037641;28;20181;-44
2021/05/07 07:39:17;;;;;;;7.07;6.33;;;6.20;99.90;;;;;;5071063;28;20179;-44
2021/05/07 07:41:42;;;;;;;5.47;4.93;;;6.50;99.90;;;;;;5070079;28;20835;-44
2021/05/07 07:44:08;;;;;;;5.77;5.27;;;7.00;99.90;;;;;;5037809;28;20703;-43
2021/05/07 07:46:34;;;;;;;5.50;4.47;;;7.60;99.90;;;;;;5038457;28;20177;-44
2021/05/07 07:48:59;;;;;;;5.53;5.10;;;7.80;99.40;;;;;;5037851;28;20182;-43
2021/05/07 07:51:34;;;;;;;5.57;5.07;;;7.80;98.50;;;;;;5038414;28;20417;-44
2021/05/07 07:54:00;;;;;;;5.43;4.90;;;7.80;99.00;;;;;;5037326;28;20432;-43
2021/05/07 07:56:26;;;;;;;5.03;4.53;;;7.60;98.80;;;;;;5037831;28;20421;-43
2021/05/07 07:58:51;;;;;;;5.80;5.20;;;7.70;99.00;;;;;;5038646;28;20495;-44
2021/05/07 08:01:18;;;;;;;5.50;4.70;;;7.80;98.70;;;;;;5038317;28;20182;-44
2021/05/07 08:03:43;;;;;;;5.47;4.97;;;7.70;99.10;;;;;;5038409;28;20480;-43
2021/05/07 08:06:09;;;;;;;6.73;6.13;;;7.70;99.20;;;;;;5038456;28;20413;-43
2021/05/07 08:08:35;;;;;;;6.73;5.30;;;7.50;99.10;;;;;;5037584;28;20167;-44
2021/05/07 08:11:00;;;;;;;7.80;7.10;;;7.50;99.70;;;;;;5036308;28;20494;-43
2021/05/07 08:13:26;;;;;;;9.33;8.43;;;7.30;99.70;;;;;;5037553;28;20182;-41
2021/05/07 08:15:52;;;;;;;9.10;8.30;;;7.40;99.90;;;;;;5035909;28;20189;-43
2021/05/07 08:18:17;;;;;;;8.93;8.13;;;7.40;99.30;;;;;;5045476;28;20641;-43
2021/05/07 08:20:43;;;;;;;8.30;7.60;;;7.40;97.70;;;;;;5056537;28;20261;-43
2021/05/07 08:23:09;;;;;;;9.20;7.93;;;7.40;97.60;;;;;;5056020;28;20306;-44
2021/05/07 08:25:34;;;;;;;9.17;8.33;;;7.40;97.80;;;;;;5055776;28;20170;-43
2021/05/07 08:28:00;;;;;;;10.20;7.17;;;7.60;97.80;;;;;;5056215;28;20244;-44
2021/05/07 08:30:26;;;;;;;8.10;7.30;;;8.00;98.20;;;;;;5053991;28;20197;-43
2021/05/07 08:32:51;;;;;;;8.80;8.07;;;8.40;97.30;;;;;;5055850;28;20477;-42
2021/05/07 08:35:17;;;;;;;7.73;7.03;;;9.10;97.10;;;;;;5054929;28;20177;-44
2021/05/07 08:37:43;;;;;;;7.90;7.10;;;9.50;94.90;;;;;;5056565;28;20216;-44
2021/05/07 08:40:15;;;;;;;6.93;6.23;;;9.60;94.60;;;;;;5056742;28;20243;-43
2021/05/07 08:42:41;;;;;;;7.17;6.47;;;9.90;94.10;;;;;;5057145;28;20503;-44
2021/05/07 08:45:08;;;;;;;7.00;6.40;;;9.60;92.80;;;;;;5055440;28;20822;-44
2021/05/07 08:47:34;;;;;;;7.57;6.87;;;9.30;93.30;;;;;;5055839;28;20431;-44
2021/05/07 08:50:04;;;;;;;7.40;6.70;;;9.40;94.00;;;;;;5056784;28;20428;-43
2021/05/07 08:52:30;;;;;;;6.93;6.33;;;8.90;93.30;;;;;;5055425;28;20561;-44
2021/05/07 08:54:56;;;;;;;10.80;7.10;;;9.30;93.90;;;;;;5056476;28;20477;-43
2021/05/07 08:57:22;;;;;;;7.40;6.70;;;9.50;92.80;;;;;;5055440;28;20181;-44
2021/05/07 08:59:49;;;;;;;7.20;6.50;;;9.70;93.70;;;;;;5055284;28;20178;-44
2021/05/07 09:02:32;;;;;;;7.30;6.60;;;9.70;92.40;;;;;;5055978;28;20593;-44
2021/05/07 09:04:59;;;;;;;6.20;5.60;;;9.70;91.50;;;;;;5057113;28;20431;-43
2021/05/07 09:07:26;;;;;;;7.13;6.43;;;9.60;91.70;;;;;;5056537;28;20413;-44
2021/05/07 09:09:57;;;;;;;7.37;4.73;;;10.20;91.40;;;;;;5056786;28;20427;-44
2021/05/07 09:12:36;;;;;;;6.30;5.70;;;10.80;87.80;;;;;;5057117;28;20797;-44
2021/05/07 09:15:04;;;;;;;5.70;5.20;;;10.60;86.10;;;;;;5057004;28;20416;-44
2021/05/07 09:17:30;;;;;;;7.30;6.20;;;10.20;85.50;;;;;;5056767;28;20412;-44
2021/05/07 09:20:12;;;;;;;4.70;4.30;;;11.10;86.00;;;;;;5057127;28;20475;-44
2021/05/07 09:22:38;;;;;;;7.37;5.57;;;10.80;82.40;;;;;;5056292;28;20885;-44
2021/05/07 09:25:13;;;;;;;6.10;5.60;;;10.60;83.40;;;;;;5056334;28;20849;-44
2021/05/07 09:27:40;;;;;;;5.37;4.87;;;11.10;85.30;;;;;;5055586;28;20416;-44
2021/05/07 09:30:30;;;;;;;7.90;7.20;;;11.10;84.10;;;;;;5056968;28;20427;-44
2021/05/07 09:32:57;;;;;;;6.60;5.87;;;10.50;83.20;;;;;;5055942;28;20428;-42
2021/05/07 09:35:30;;;;;;;6.97;6.27;;;11.10;82.90;;;;;;5055687;28;20423;-44
2021/05/07 09:38:10;;;;;;;5.27;4.77;;;12.00;81.50;;;;;;5039611;28;20482;-45
2021/05/07 09:40:37;;;;;;;5.67;5.17;;;12.30;76.10;;;;;;5058997;28;20820;-42
2021/05/07 09:43:13;;;;;;;6.07;5.17;;;12.70;74.20;;;;;;5058964;28;20471;-44
2021/05/07 09:45:46;;;;;;;5.80;5.30;;;12.70;70.40;;;;;;5059822;28;20416;-42
2021/05/07 09:48:18;;;;;;;5.37;4.87;;;12.50;71.10;;;;;;5058429;28;20732;-42
2021/05/07 09:50:44;;;;;;;5.33;4.53;;;13.00;71.00;;;;;;5059235;28;20415;-44
2021/05/07 09:53:34;;;;;;;4.67;4.10;;;13.40;66.30;;;;;;5058721;28;20412;-44
2021/05/07 09:56:10;;;;;;;4.50;4.10;;;13.60;64.70;;;;;;5055891;28;20435;-44
2021/05/07 09:58:37;;;;;;;5.20;4.63;;;14.80;61.00;;;;;;5059453;28;20879;-44
2021/05/07 10:01:03;;;;;;;4.70;4.30;;;13.40;57.40;;;;;;5059659;28;20794;-44
2021/05/07 10:03:28;;;;;;;4.27;3.87;;;13.00;58.30;;;;;;5060069;28;20584;-44
2021/05/07 10:05:54;;;;;;;4.30;3.87;;;12.50;57.10;;;;;;5059144;28;20177;-44
2021/05/07 10:08:20;;;;;;;4.77;4.30;;;12.20;57.70;;;;;;5059403;28;20484;-44
2021/05/07 10:10:48;;;;;;;4.60;4.20;;;11.80;57.90;;;;;;5058715;28;20491;-44
2021/05/07 10:13:24;;;;;;;5.70;5.10;;;11.40;58.30;;;;;;5058812;28;20170;-43
2021/05/07 10:16:03;;;;;;;5.63;4.90;;;10.20;62.70;;;;;;5059965;28;20404;-44
2021/05/07 10:18:32;;;;;;;5.83;4.80;;;10.00;66.10;;;;;;5057581;28;20428;-44
2021/05/07 10:21:02;;;;;;;6.13;5.10;;;10.60;66.60;;;;;;5057556;28;20484;-42
2021/05/07 10:23:29;;;;;;;5.30;4.57;;;10.60;69.30;;;;;;5058508;28;20560;-44
2021/05/07 10:26:09;;;;;;;5.40;4.90;;;10.90;72.80;;;;;;5058586;28;20417;-45
2021/05/07 10:28:50;;;;;;;5.37;3.90;;;11.60;70.50;;;;;;5057154;28;20415;-44
2021/05/07 10:31:17;;;;;;;5.23;4.73;;;12.50;60.90;;;;;;5057524;28;20694;-43
2021/05/07 10:34:03;;;;;;;6.73;4.40;;;13.40;56.90;;;;;;5059300;28;20432;-44
2021/05/07 10:36:59;;;;;;;4.37;3.97;;;13.90;57.60;;;;;;5057980;28;20412;-44
2021/05/07 10:39:29;;;;;;;4.07;3.67;;;13.90;55.20;;;;;;5048897;28;20709;-44
2021/05/07 10:41:59;;;;;;;4.60;4.20;;;13.80;55.10;;;;;;5058025;28;20862;-44
2021/05/07 10:44:26;;;;;;;3.90;3.60;;;13.30;55.50;;;;;;5058066;28;20425;-44
2021/05/07 10:47:06;;;;;;;4.80;4.07;;;13.50;56.50;;;;;;5057751;28;20491;-44
2021/05/07 10:49:39;;;;;;;7.03;5.30;;;13.30;55.50;;;;;;5058460;28;20488;-42
2021/05/07 10:52:06;;;;;;;5.73;4.00;;;12.10;56.90;;;;;;5059217;28;20412;-44
2021/05/07 10:54:47;;;;;;;7.03;4.37;;;12.00;56.80;;;;;;5058460;28;20452;-43
2021/05/07 10:57:27;;;;;;;6.40;4.77;;;11.60;57.50;;;;;;5058920;28;20494;-44
2021/05/07 11:00:03;;;;;;;4.80;4.40;;;11.00;58.00;;;;;;5058717;28;20454;-44
2021/05/07 11:02:46;;;;;;;5.03;4.57;;;11.20;59.30;;;;;;5058134;28;20719;-44
2021/05/07 11:05:13;;;;;;;4.40;4.10;;;11.50;60.00;;;;;;5057627;28;20431;-44
2021/05/07 11:07:50;;;;;;;4.30;3.90;;;12.60;58.20;;;;;;5057409;28;20413;-43
2021/05/07 11:10:16;;;;;;;4.70;4.30;;;12.20;54.00;;;;;;5057376;28;20691;-43
2021/05/07 11:12:44;;;;;;;5.27;3.73;;;11.40;53.50;;;;;;5057699;28;20446;-42
2021/05/07 11:15:20;;;;;;;5.53;4.87;;;11.20;55.80;;;;;;5056591;28;20242;-43
2021/05/07 11:17:45;;;;;;;5.60;4.70;;;10.90;56.40;;;;;;5058079;28;20485;-44
2021/05/07 11:20:12;;;;;;;5.73;5.10;;;10.70;57.60;;;;;;5054922;28;20480;-43
2021/05/07 11:22:39;;;;;;;4.97;4.57;;;10.10;57.00;;;;;;5056552;28;20233;-43
2021/05/07 11:25:07;;;;;;;8.10;5.40;;;10.50;57.70;;;;;;5056639;28;20430;-44
2021/05/07 11:27:32;;;;;;;6.17;4.77;;;10.60;57.80;;;;;;5056426;28;20514;-43
2021/05/07 11:30:04;;;;;;;4.50;4.10;;;11.00;58.40;;;;;;5056542;28;20430;-44
2021/05/07 11:32:31;;;;;;;5.50;4.73;;;11.10;58.50;;;;;;5057019;28;20418;-43
2021/05/07 11:35:01;;;;;;;5.73;5.13;;;10.60;58.60;;;;;;5057290;28;20432;-43
2021/05/07 11:37:29;;;;;;;5.70;5.20;;;10.70;60.50;;;;;;5058268;28;20421;-43
2021/05/07 11:40:01;;;;;;;4.97;4.47;;;11.00;58.30;;;;;;5057948;28;20844;-44
2021/05/07 11:42:43;;;;;;;4.17;3.77;;;11.70;57.50;;;;;;5058335;28;20537;-44
2021/05/07 11:45:23;;;;;;;5.07;4.50;;;12.30;56.10;;;;;;5056101;28;20448;-44
2021/05/07 11:47:49;;;;;;;5.00;4.40;;;13.20;55.80;;;;;;5057670;28;20440;-44
2021/05/07 11:50:17;;;;;;;4.53;4.13;;;14.20;54.30;;;;;;5057335;28;20428;-44
2021/05/07 11:52:47;;;;;;;5.57;5.07;;;14.90;53.10;;;;;;5057665;28;20807;-43
2021/05/07 11:55:19;;;;;;;4.53;4.17;;;13.90;50.50;;;;;;5056583;28;20489;-43
2021/05/07 11:58:08;;;;;;;5.20;4.30;;;12.50;51.70;;;;;;5056084;28;20519;-44
2021/05/07 12:00:39;;;;;;;4.90;4.40;;;13.50;52.10;;;;;;5055499;28;20420;-42
2021/05/07 12:03:14;;;;;;;4.70;4.07;;;14.50;50.30;;;;;;5038292;28;20460;-43
2021/05/07 12:05:44;;;;;;;5.80;4.40;;;15.60;48.90;;;;;;5056483;28;20415;-44
2021/05/07 12:08:11;;;;;;;6.83;4.60;;;14.50;46.80;;;;;;5055806;28;20474;-44
2021/05/07 12:10:39;;;;;;;4.70;4.20;;;13.50;48.70;;;;;;5056775;28;20444;-44
2021/05/07 12:13:05;;;;;;;4.90;4.47;;;13.20;49.10;;;;;;5056526;28;20420;-44
2021/05/07 12:15:48;;;;;;;4.90;3.80;;;12.80;52.30;;;;;;5055459;28;20423;-44
2021/05/07 12:18:18;;;;;;;3.87;3.53;;;11.40;48.80;;;;;;5056025;28;20785;-44
2021/05/07 12:20:45;;;;;;;5.60;3.60;;;12.00;49.90;;;;;;5056142;28;20504;-44
2021/05/07 12:23:11;;;;;;;4.50;3.87;;;11.80;49.30;;;;;;5056054;28;20463;-43
2021/05/07 12:25:41;;;;;;;4.20;3.63;;;11.20;50.30;;;;;;5055337;28;20421;-44
2021/05/07 12:28:18;;;;;;;3.97;3.63;;;11.20;51.50;;;;;;5055657;28;20204;-44
2021/05/07 12:30:45;;;;;;;3.87;3.53;;;11.00;50.30;;;;;;5056599;28;20852;-43
2021/05/07 12:33:17;;;;;;;4.00;3.60;;;10.90;50.50;;;;;;5055943;28;20502;-44
2021/05/07 12:35:43;;;;;;;3.70;3.40;;;11.00;50.70;;;;;;5056752;28;20754;-42
2021/05/07 12:38:24;;;;;;;4.23;3.60;;;10.80;50.70;;;;;;5056696;28;20718;-43
2021/05/07 12:40:55;;;;;;;5.03;3.60;;;10.70;50.80;;;;;;5056776;28;20694;-43
2021/05/07 12:43:22;;;;;;;5.00;4.30;;;10.70;51.20;;;;;;5056450;28;20889;-43
2021/05/07 12:45:50;;;;;;;4.53;4.13;;;10.90;51.50;;;;;;5056397;28;20482;-44
2021/05/07 12:48:16;;;;;;;5.50;3.40;;;10.40;51.20;;;;;;5056110;28;20894;-44
2021/05/07 12:50:43;;;;;;;4.63;4.10;;;10.20;52.20;;;;;;5057228;28;20493;-43
2021/05/07 12:53:13;;;;;;;4.17;3.77;;;10.70;53.30;;;;;;5056071;28;20413;-43
2021/05/07 12:55:39;;;;;;;7.53;6.13;;;12.30;54.10;;;;;;5056646;28;20431;-45
2021/05/07 12:58:06;;;;;;;7.53;4.47;;;13.90;51.60;;;;;;5056338;28;20416;-44